sensor_id;sensor_type;location;lat;lon;timestamp;P1;durP1;ratioP1;P2;durP2;ratioP2
17259;SDS011;8746;49.230;9.220;2022-09-03T00:00:35;2.03;;;0.40;;
17259;SDS011;8746;49.230;9.220;2022-09-03T00:03:16;0.40;;;0.40;;
17259;SDS011;8746;49.230;9.220;2022-09-03T00:05:47;0.60;;;0.30;;
17259;SDS011;8746;49.230;9.220;2022-09-03T00:08:28;0.30;;;0.30;;
17259;SDS011;8746;49.230;9.220;2022-09-03T00:14:06;0.20;;;0.20;;
17259;SDS011;8746;49.230;9.220;2022-09-03T00:16:43;0.30;;;0.30;;
17259;SDS011;8746;49.230;9.220;2022-09-03T00:19:12;0.30;;;0.30;;
17259;SDS011;8746;49.230;9.220;2022-09-03T00:21:45;0.20;;;0.20;;
17259;SDS011;8746;49.230;9.220;2022-09-03T00:24:15;0.10;;;0.10;;
17259;SDS011;8746;49.230;9.220;2022-09-03T00:26:46;0.37;;;0.37;;
17259;SDS011;8746;49.230;9.220;2022-09-03T00:29:23;0.20;;;0.20;;
17259;SDS011;8746;49.230;9.220;2022-09-03T00:31:53;0.20;;;0.13;;
17259;SDS011;8746;49.230;9.220;2022-09-03T00:34:23;0.40;;;0.40;;
17259;SDS011;8746;49.230;9.220;2022-09-03T00:36:54;0.30;;;0.30;;
17259;SDS011;8746;49.230;9.220;2022-09-03T00:39:21;0.30;;;0.30;;
17259;SDS011;8746;49.230;9.220;2022-09-03T00:44:47;0.20;;;0.20;;
17259;SDS011;8746;49.230;9.220;2022-09-03T01:00:30;0.20;;;0.20;;
17259;SDS011;8746;49.230;9.220;2022-09-03T01:03:06;0.20;;;0.20;;
17259;SDS011;8746;49.230;9.220;2022-09-03T01:10:39;0.20;;;0.20;;
17259;SDS011;8746;49.230;9.220;2022-09-03T01:13:20;0.30;;;0.30;;
17259;SDS011;8746;49.230;9.220;2022-09-03T01:16:08;0.30;;;0.30;;
17259;SDS011;8746;49.230;9.220;2022-09-03T01:19:33;0.20;;;0.20;;
17259;SDS011;8746;49.230;9.220;2022-09-03T01:24:49;0.43;;;0.40;;
17259;SDS011;8746;49.230;9.220;2022-09-03T01:27:30;0.40;;;0.40;;
17259;SDS011;8746;49.230;9.220;2022-09-03T01:30:34;0.30;;;0.20;;
17259;SDS011;8746;49.230;9.220;2022-09-03T01:33:00;0.20;;;0.20;;
17259;SDS011;8746;49.230;9.220;2022-09-03T01:35:38;1.03;;;0.50;;
17259;SDS011;8746;49.230;9.220;2022-09-03T01:38:30;0.20;;;0.20;;
17259;SDS011;8746;49.230;9.220;2022-09-03T01:41:10;0.30;;;0.30;;
17259;SDS011;8746;49.230;9.220;2022-09-03T01:46:33;0.20;;;0.20;;
17259;SDS011;8746;49.230;9.220;2022-09-03T01:49:20;0.20;;;0.20;;
17259;SDS011;8746;49.230;9.220;2022-09-03T01:52:01;0.10;;;0.10;;
17259;SDS011;8746;49.230;9.220;2022-09-03T01:57:21;0.37;;;0.37;;
17259;SDS011;8746;49.230;9.220;2022-09-03T02:00:00;0.30;;;0.30;;
17259;SDS011;8746;49.230;9.220;2022-09-03T02:02:32;0.50;;;0.50;;
17259;SDS011;8746;49.230;9.220;2022-09-03T02:05:08;0.50;;;0.50;;
17259;SDS011;8746;49.230;9.220;2022-09-03T02:07:39;0.30;;;0.30;;
17259;SDS011;8746;49.230;9.220;2022-09-03T02:10:10;0.33;;;0.33;;
17259;SDS011;8746;49.230;9.220;2022-09-03T02:12:37;0.30;;;0.30;;
17259;SDS011;8746;49.230;9.220;2022-09-03T02:15:11;0.20;;;0.20;;
17259;SDS011;8746;49.230;9.220;2022-09-03T02:17:40;0.23;;;0.23;;
17259;SDS011;8746;49.230;9.220;2022-09-03T02:20:09;0.30;;;0.30;;
17259;SDS011;8746;49.230;9.220;2022-09-03T02:22:43;0.30;;;0.30;;
17259;SDS011;8746;49.230;9.220;2022-09-03T02:25:09;0.10;;;0.10;;
17259;SDS011;8746;49.230;9.220;2022-09-03T02:27:36;0.40;;;0.30;;
17259;SDS011;8746;49.230;9.220;2022-09-03T02:30:02;0.20;;;0.20;;
17259;SDS011;8746;49.230;9.220;2022-09-03T02:32:29;0.20;;;0.20;;
17259;SDS011;8746;49.230;9.220;2022-09-03T02:34:55;0.17;;;0.17;;
17259;SDS011;8746;49.230;9.220;2022-09-03T02:37:20;0.50;;;0.50;;
17259;SDS011;8746;49.230;9.220;2022-09-03T02:39:46;0.20;;;0.20;;
17259;SDS011;8746;49.230;9.220;2022-09-03T02:42:12;0.20;;;0.20;;
17259;SDS011;8746;49.230;9.220;2022-09-03T02:44:40;0.40;;;0.40;;
17259;SDS011;8746;49.230;9.220;2022-09-03T02:47:10;0.30;;;0.30;;
17259;SDS011;8746;49.230;9.220;2022-09-03T02:49:36;0.20;;;0.20;;
17259;SDS011;8746;49.230;9.220;2022-09-03T02:52:03;0.67;;;0.40;;
17259;SDS011;8746;49.230;9.220;2022-09-03T02:54:31;0.10;;;0.10;;
17259;SDS011;8746;49.230;9.220;2022-09-03T02:56:59;0.40;;;0.40;;
17259;SDS011;8746;49.230;9.220;2022-09-03T02:59:25;0.67;;;0.50;;
17259;SDS011;8746;49.230;9.220;2022-09-03T03:01:52;0.27;;;0.27;;
17259;SDS011;8746;49.230;9.220;2022-09-03T03:04:19;0.30;;;0.30;;
17259;SDS011;8746;49.230;9.220;2022-09-03T03:06:45;0.30;;;0.30;;
17259;SDS011;8746;49.230;9.220;2022-09-03T03:09:11;0.30;;;0.30;;
17259;SDS011;8746;49.230;9.220;2022-09-03T03:11:36;0.37;;;0.37;;
17259;SDS011;8746;49.230;9.220;2022-09-03T03:14:04;0.20;;;0.20;;
17259;SDS011;8746;49.230;9.220;2022-09-03T03:16:29;0.50;;;0.50;;
17259;SDS011;8746;49.230;9.220;2022-09-03T03:18:55;0.23;;;0.23;;
17259;SDS011;8746;49.230;9.220;2022-09-03T03:21:21;0.20;;;0.20;;
17259;SDS011;8746;49.230;9.220;2022-09-03T03:23:46;0.40;;;0.40;;
17259;SDS011;8746;49.230;9.220;2022-09-03T03:26:13;0.23;;;0.23;;
17259;SDS011;8746;49.230;9.220;2022-09-03T03:28:42;0.30;;;0.30;;
17259;SDS011;8746;49.230;9.220;2022-09-03T03:31:08;0.10;;;0.10;;
17259;SDS011;8746;49.230;9.220;2022-09-03T03:33:36;0.30;;;0.30;;
17259;SDS011;8746;49.230;9.220;2022-09-03T03:36:03;0.20;;;0.20;;
17259;SDS011;8746;49.230;9.220;2022-09-03T03:38:33;1.40;;;0.40;;
17259;SDS011;8746;49.230;9.220;2022-09-03T03:41:05;0.30;;;0.30;;
17259;SDS011;8746;49.230;9.220;2022-09-03T03:43:41;0.20;;;0.20;;
17259;SDS011;8746;49.230;9.220;2022-09-03T03:46:06;0.23;;;0.23;;
17259;SDS011;8746;49.230;9.220;2022-09-03T03:48:32;0.30;;;0.30;;
17259;SDS011;8746;49.230;9.220;2022-09-03T03:51:02;0.50;;;0.50;;
17259;SDS011;8746;49.230;9.220;2022-09-03T03:53:30;0.40;;;0.40;;
17259;SDS011;8746;49.230;9.220;2022-09-03T03:55:57;0.83;;;0.43;;
17259;SDS011;8746;49.230;9.220;2022-09-03T03:58:26;0.17;;;0.17;;
17259;SDS011;8746;49.230;9.220;2022-09-03T04:00:52;0.27;;;0.27;;
17259;SDS011;8746;49.230;9.220;2022-09-03T04:03:19;0.20;;;0.20;;
17259;SDS011;8746;49.230;9.220;2022-09-03T04:05:54;0.60;;;0.60;;
17259;SDS011;8746;49.230;9.220;2022-09-03T04:08:20;0.20;;;0.20;;
17259;SDS011;8746;49.230;9.220;2022-09-03T04:10:46;1.10;;;0.30;;
17259;SDS011;8746;49.230;9.220;2022-09-03T04:13:12;0.50;;;0.50;;
17259;SDS011;8746;49.230;9.220;2022-09-03T04:15:38;0.30;;;0.30;;
17259;SDS011;8746;49.230;9.220;2022-09-03T04:18:03;0.23;;;0.23;;
17259;SDS011;8746;49.230;9.220;2022-09-03T04:20:29;0.30;;;0.30;;
17259;SDS011;8746;49.230;9.220;2022-09-03T04:22:54;0.60;;;0.30;;
17259;SDS011;8746;49.230;9.220;2022-09-03T04:25:25;0.37;;;0.37;;
17259;SDS011;8746;49.230;9.220;2022-09-03T04:27:50;0.33;;;0.33;;
17259;SDS011;8746;49.230;9.220;2022-09-03T04:30:16;0.40;;;0.40;;
17259;SDS011;8746;49.230;9.220;2022-09-03T04:32:42;0.10;;;0.10;;
17259;SDS011;8746;49.230;9.220;2022-09-03T04:35:23;0.10;;;0.10;;
17259;SDS011;8746;49.230;9.220;2022-09-03T04:37:50;0.30;;;0.30;;
17259;SDS011;8746;49.230;9.220;2022-09-03T04:40:19;0.20;;;0.20;;
17259;SDS011;8746;49.230;9.220;2022-09-03T04:42:44;0.50;;;0.50;;
17259;SDS011;8746;49.230;9.220;2022-09-03T04:45:10;0.40;;;0.40;;
17259;SDS011;8746;49.230;9.220;2022-09-03T04:47:39;0.50;;;0.40;;
17259;SDS011;8746;49.230;9.220;2022-09-03T04:50:05;0.97;;;0.60;;
17259;SDS011;8746;49.230;9.220;2022-09-03T04:52:30;0.50;;;0.50;;
17259;SDS011;8746;49.230;9.220;2022-09-03T04:54:56;0.23;;;0.23;;
17259;SDS011;8746;49.230;9.220;2022-09-03T04:57:22;0.53;;;0.53;;
17259;SDS011;8746;49.230;9.220;2022-09-03T04:59:48;0.20;;;0.20;;
17259;SDS011;8746;49.230;9.220;2022-09-03T05:02:13;0.73;;;0.30;;
17259;SDS011;8746;49.230;9.220;2022-09-03T05:04:39;0.77;;;0.77;;
17259;SDS011;8746;49.230;9.220;2022-09-03T05:07:05;0.40;;;0.40;;
17259;SDS011;8746;49.230;9.220;2022-09-03T05:09:30;0.47;;;0.47;;
17259;SDS011;8746;49.230;9.220;2022-09-03T05:11:55;0.20;;;0.20;;
17259;SDS011;8746;49.230;9.220;2022-09-03T05:14:21;0.43;;;0.43;;
17259;SDS011;8746;49.230;9.220;2022-09-03T05:16:47;0.30;;;0.30;;
17259;SDS011;8746;49.230;9.220;2022-09-03T05:19:12;0.30;;;0.30;;
17259;SDS011;8746;49.230;9.220;2022-09-03T05:21:37;0.60;;;0.60;;
17259;SDS011;8746;49.230;9.220;2022-09-03T05:24:03;0.30;;;0.30;;
17259;SDS011;8746;49.230;9.220;2022-09-03T05:26:30;0.30;;;0.30;;
17259;SDS011;8746;49.230;9.220;2022-09-03T05:28:58;0.70;;;0.70;;
17259;SDS011;8746;49.230;9.220;2022-09-03T05:31:26;0.53;;;0.53;;
17259;SDS011;8746;49.230;9.220;2022-09-03T05:33:54;0.57;;;0.57;;
17259;SDS011;8746;49.230;9.220;2022-09-03T05:36:25;0.33;;;0.33;;
17259;SDS011;8746;49.230;9.220;2022-09-03T05:38:52;0.33;;;0.33;;
17259;SDS011;8746;49.230;9.220;2022-09-03T05:41:18;0.30;;;0.30;;
17259;SDS011;8746;49.230;9.220;2022-09-03T05:43:48;0.53;;;0.53;;
17259;SDS011;8746;49.230;9.220;2022-09-03T05:46:23;0.30;;;0.30;;
17259;SDS011;8746;49.230;9.220;2022-09-03T05:48:56;0.53;;;0.53;;
17259;SDS011;8746;49.230;9.220;2022-09-03T05:51:23;0.27;;;0.27;;
17259;SDS011;8746;49.230;9.220;2022-09-03T05:53:48;0.40;;;0.40;;
17259;SDS011;8746;49.230;9.220;2022-09-03T05:56:15;0.20;;;0.20;;
17259;SDS011;8746;49.230;9.220;2022-09-03T05:58:44;1.70;;;0.40;;
17259;SDS011;8746;49.230;9.220;2022-09-03T06:01:18;0.40;;;0.40;;
17259;SDS011;8746;49.230;9.220;2022-09-03T06:03:46;0.30;;;0.30;;
17259;SDS011;8746;49.230;9.220;2022-09-03T06:06:17;0.13;;;0.13;;
17259;SDS011;8746;49.230;9.220;2022-09-03T06:08:42;0.50;;;0.43;;
17259;SDS011;8746;49.230;9.220;2022-09-03T06:11:08;0.30;;;0.30;;
17259;SDS011;8746;49.230;9.220;2022-09-03T06:13:34;0.40;;;0.40;;
17259;SDS011;8746;49.230;9.220;2022-09-03T06:16:01;0.50;;;0.50;;
17259;SDS011;8746;49.230;9.220;2022-09-03T06:18:28;0.33;;;0.33;;
17259;SDS011;8746;49.230;9.220;2022-09-03T06:20:55;0.63;;;0.63;;
17259;SDS011;8746;49.230;9.220;2022-09-03T06:23:24;0.40;;;0.40;;
17259;SDS011;8746;49.230;9.220;2022-09-03T06:26:00;0.40;;;0.40;;
17259;SDS011;8746;49.230;9.220;2022-09-03T06:28:28;0.50;;;0.50;;
17259;SDS011;8746;49.230;9.220;2022-09-03T06:30:56;0.50;;;0.50;;
17259;SDS011;8746;49.230;9.220;2022-09-03T06:33:22;0.50;;;0.50;;
17259;SDS011;8746;49.230;9.220;2022-09-03T06:35:51;0.20;;;0.20;;
17259;SDS011;8746;49.230;9.220;2022-09-03T06:38:23;0.30;;;0.30;;
17259;SDS011;8746;49.230;9.220;2022-09-03T06:40:56;0.33;;;0.33;;
17259;SDS011;8746;49.230;9.220;2022-09-03T06:43:28;0.47;;;0.47;;
17259;SDS011;8746;49.230;9.220;2022-09-03T06:46:06;0.40;;;0.40;;
17259;SDS011;8746;49.230;9.220;2022-09-03T06:48:34;0.33;;;0.33;;
17259;SDS011;8746;49.230;9.220;2022-09-03T06:51:02;0.50;;;0.50;;
17259;SDS011;8746;49.230;9.220;2022-09-03T06:53:30;0.20;;;0.20;;
17259;SDS011;8746;49.230;9.220;2022-09-03T06:56:07;0.33;;;0.33;;
17259;SDS011;8746;49.230;9.220;2022-09-03T06:58:38;0.50;;;0.50;;
17259;SDS011;8746;49.230;9.220;2022-09-03T07:01:11;0.30;;;0.30;;
17259;SDS011;8746;49.230;9.220;2022-09-03T07:03:39;0.40;;;0.40;;
17259;SDS011;8746;49.230;9.220;2022-09-03T07:08:32;0.30;;;0.30;;
17259;SDS011;8746;49.230;9.220;2022-09-03T07:10:59;1.03;;;0.63;;
17259;SDS011;8746;49.230;9.220;2022-09-03T07:13:27;0.80;;;0.60;;
17259;SDS011;8746;49.230;9.220;2022-09-03T07:16:03;0.73;;;0.30;;
17259;SDS011;8746;49.230;9.220;2022-09-03T07:18:30;0.53;;;0.47;;
17259;SDS011;8746;49.230;9.220;2022-09-03T07:20:57;0.40;;;0.40;;
17259;SDS011;8746;49.230;9.220;2022-09-03T07:23:23;0.40;;;0.40;;
17259;SDS011;8746;49.230;9.220;2022-09-03T07:25:56;0.47;;;0.47;;
17259;SDS011;8746;49.230;9.220;2022-09-03T07:28:24;0.47;;;0.47;;
17259;SDS011;8746;49.230;9.220;2022-09-03T07:30:52;0.60;;;0.60;;
17259;SDS011;8746;49.230;9.220;2022-09-03T07:33:19;0.50;;;0.50;;
17259;SDS011;8746;49.230;9.220;2022-09-03T07:35:45;0.47;;;0.47;;
17259;SDS011;8746;49.230;9.220;2022-09-03T07:38:15;0.50;;;0.50;;
17259;SDS011;8746;49.230;9.220;2022-09-03T07:40:41;0.50;;;0.50;;
17259;SDS011;8746;49.230;9.220;2022-09-03T07:43:07;0.50;;;0.50;;
17259;SDS011;8746;49.230;9.220;2022-09-03T07:45:33;0.50;;;0.50;;
17259;SDS011;8746;49.230;9.220;2022-09-03T07:47:58;0.83;;;0.83;;
17259;SDS011;8746;49.230;9.220;2022-09-03T07:50:24;0.53;;;0.53;;
17259;SDS011;8746;49.230;9.220;2022-09-03T07:52:55;0.33;;;0.33;;
17259;SDS011;8746;49.230;9.220;2022-09-03T07:55:22;1.10;;;0.73;;
17259;SDS011;8746;49.230;9.220;2022-09-03T07:57:47;0.50;;;0.50;;
17259;SDS011;8746;49.230;9.220;2022-09-03T08:00:13;1.90;;;0.70;;
17259;SDS011;8746;49.230;9.220;2022-09-03T08:02:39;0.50;;;0.50;;
17259;SDS011;8746;49.230;9.220;2022-09-03T08:05:04;0.70;;;0.70;;
17259;SDS011;8746;49.230;9.220;2022-09-03T08:07:31;0.40;;;0.30;;
17259;SDS011;8746;49.230;9.220;2022-09-03T08:09:56;0.30;;;0.30;;
17259;SDS011;8746;49.230;9.220;2022-09-03T08:12:22;0.50;;;0.50;;
17259;SDS011;8746;49.230;9.220;2022-09-03T08:14:48;0.70;;;0.70;;
17259;SDS011;8746;49.230;9.220;2022-09-03T08:17:13;0.70;;;0.70;;
17259;SDS011;8746;49.230;9.220;2022-09-03T08:19:38;0.70;;;0.70;;
17259;SDS011;8746;49.230;9.220;2022-09-03T08:22:06;0.50;;;0.50;;
17259;SDS011;8746;49.230;9.220;2022-09-03T08:24:31;0.70;;;0.37;;
17259;SDS011;8746;49.230;9.220;2022-09-03T08:26:58;0.40;;;0.40;;
17259;SDS011;8746;49.230;9.220;2022-09-03T08:29:24;0.40;;;0.40;;
17259;SDS011;8746;49.230;9.220;2022-09-03T08:31:51;0.47;;;0.47;;
17259;SDS011;8746;49.230;9.220;2022-09-03T08:34:17;0.43;;;0.43;;
17259;SDS011;8746;49.230;9.220;2022-09-03T08:36:43;0.50;;;0.50;;
17259;SDS011;8746;49.230;9.220;2022-09-03T08:39:10;0.50;;;0.50;;
17259;SDS011;8746;49.230;9.220;2022-09-03T08:46:56;2.97;;;1.53;;
17259;SDS011;8746;49.230;9.220;2022-09-03T08:58:01;0.50;;;0.50;;
17259;SDS011;8746;49.230;9.220;2022-09-03T09:00:41;0.30;;;0.30;;
17259;SDS011;8746;49.230;9.220;2022-09-03T09:03:28;0.50;;;0.50;;
17259;SDS011;8746;49.230;9.220;2022-09-03T09:09:01;0.40;;;0.40;;
17259;SDS011;8746;49.230;9.220;2022-09-03T09:14:32;1.30;;;0.67;;
17259;SDS011;8746;49.230;9.220;2022-09-03T09:24:55;0.50;;;0.50;;
17259;SDS011;8746;49.230;9.220;2022-09-03T09:27:23;0.40;;;0.40;;
17259;SDS011;8746;49.230;9.220;2022-09-03T09:29:49;0.47;;;0.47;;
17259;SDS011;8746;49.230;9.220;2022-09-03T09:32:16;0.60;;;0.60;;
17259;SDS011;8746;49.230;9.220;2022-09-03T09:34:42;0.43;;;0.43;;
17259;SDS011;8746;49.230;9.220;2022-09-03T09:37:09;0.80;;;0.67;;
17259;SDS011;8746;49.230;9.220;2022-09-03T09:39:37;0.60;;;0.53;;
17259;SDS011;8746;49.230;9.220;2022-09-03T09:42:05;0.80;;;0.52;;
17259;SDS011;8746;49.230;9.220;2022-09-03T09:44:34;0.40;;;0.40;;
17259;SDS011;8746;49.230;9.220;2022-09-03T09:47:00;1.30;;;0.43;;
17259;SDS011;8746;49.230;9.220;2022-09-03T09:49:36;0.40;;;0.40;;
17259;SDS011;8746;49.230;9.220;2022-09-03T09:52:15;0.55;;;0.55;;
17259;SDS011;8746;49.230;9.220;2022-09-03T09:54:41;0.50;;;0.50;;
17259;SDS011;8746;49.230;9.220;2022-09-03T09:57:13;0.70;;;0.70;;
17259;SDS011;8746;49.230;9.220;2022-09-03T09:59:44;1.00;;;0.75;;
17259;SDS011;8746;49.230;9.220;2022-09-03T10:02:22;0.50;;;0.50;;
17259;SDS011;8746;49.230;9.220;2022-09-03T10:04:53;0.52;;;0.47;;
17259;SDS011;8746;49.230;9.220;2022-09-03T10:07:35;0.40;;;0.40;;
17259;SDS011;8746;49.230;9.220;2022-09-03T10:20:26;0.65;;;0.52;;
17259;SDS011;8746;49.230;9.220;2022-09-03T10:23:12;0.40;;;0.40;;
17259;SDS011;8746;49.230;9.220;2022-09-03T10:26:02;0.60;;;0.60;;
17259;SDS011;8746;49.230;9.220;2022-09-03T10:28:36;0.68;;;0.68;;
17259;SDS011;8746;49.230;9.220;2022-09-03T10:33:38;0.30;;;0.22;;
17259;SDS011;8746;49.230;9.220;2022-09-03T10:36:10;0.77;;;0.70;;
17259;SDS011;8746;49.230;9.220;2022-09-03T10:38:40;1.58;;;0.82;;
17259;SDS011;8746;49.230;9.220;2022-09-03T10:41:11;0.60;;;0.60;;
17259;SDS011;8746;49.230;9.220;2022-09-03T10:43:44;0.50;;;0.43;;
17259;SDS011;8746;49.230;9.220;2022-09-03T10:49:38;0.70;;;0.70;;
17259;SDS011;8746;49.230;9.220;2022-09-03T10:52:10;0.55;;;0.55;;
17259;SDS011;8746;49.230;9.220;2022-09-03T10:55:10;0.57;;;0.40;;
17259;SDS011;8746;49.230;9.220;2022-09-03T11:00:32;0.43;;;0.43;;
17259;SDS011;8746;49.230;9.220;2022-09-03T11:08:15;0.32;;;0.32;;
17259;SDS011;8746;49.230;9.220;2022-09-03T11:10:47;0.80;;;0.80;;
17259;SDS011;8746;49.230;9.220;2022-09-03T11:15:54;0.50;;;0.50;;
17259;SDS011;8746;49.230;9.220;2022-09-03T11:18:36;1.25;;;0.70;;
17259;SDS011;8746;49.230;9.220;2022-09-03T11:21:09;0.80;;;0.70;;
17259;SDS011;8746;49.230;9.220;2022-09-03T11:23:45;0.50;;;0.50;;
17259;SDS011;8746;49.230;9.220;2022-09-03T11:26:16;0.28;;;0.28;;
17259;SDS011;8746;49.230;9.220;2022-09-03T11:38:01;0.30;;;0.30;;
17259;SDS011;8746;49.230;9.220;2022-09-03T11:40:32;0.25;;;0.20;;
17259;SDS011;8746;49.230;9.220;2022-09-03T11:43:13;0.40;;;0.40;;
17259;SDS011;8746;49.230;9.220;2022-09-03T11:46:52;0.20;;;0.20;;
17259;SDS011;8746;49.230;9.220;2022-09-03T11:48:55;0.43;;;0.43;;
17259;SDS011;8746;49.230;9.220;2022-09-03T11:51:33;0.30;;;0.30;;
17259;SDS011;8746;49.230;9.220;2022-09-03T11:56:32;0.00;;;0.00;;
17259;SDS011;8746;49.230;9.220;2022-09-03T12:02:01;0.25;;;0.25;;
17259;SDS011;8746;49.230;9.220;2022-09-03T12:04:43;0.10;;;0.10;;
17259;SDS011;8746;49.230;9.220;2022-09-03T12:07:28;0.38;;;0.38;;
17259;SDS011;8746;49.230;9.220;2022-09-03T12:10:11;0.28;;;0.28;;
17259;SDS011;8746;49.230;9.220;2022-09-03T12:18:31;0.57;;;0.57;;
17259;SDS011;8746;49.230;9.220;2022-09-03T12:20:59;0.13;;;0.13;;
17259;SDS011;8746;49.230;9.220;2022-09-03T12:23:33;0.10;;;0.10;;
17259;SDS011;8746;49.230;9.220;2022-09-03T12:26:13;0.45;;;0.35;;
17259;SDS011;8746;49.230;9.220;2022-09-03T12:28:49;0.30;;;0.25;;
17259;SDS011;8746;49.230;9.220;2022-09-03T12:31:21;0.25;;;0.25;;
17259;SDS011;8746;49.230;9.220;2022-09-03T12:33:55;0.30;;;0.30;;
17259;SDS011;8746;49.230;9.220;2022-09-03T12:36:23;0.85;;;0.47;;
17259;SDS011;8746;49.230;9.220;2022-09-03T12:38:49;0.35;;;0.32;;
17259;SDS011;8746;49.230;9.220;2022-09-03T12:41:24;0.35;;;0.32;;
17259;SDS011;8746;49.230;9.220;2022-09-03T12:43:51;0.38;;;0.38;;
17259;SDS011;8746;49.230;9.220;2022-09-03T12:46:23;0.20;;;0.20;;
17259;SDS011;8746;49.230;9.220;2022-09-03T12:51:33;0.35;;;0.35;;
17259;SDS011;8746;49.230;9.220;2022-09-03T12:54:05;0.35;;;0.28;;
17259;SDS011;8746;49.230;9.220;2022-09-03T12:56:38;0.80;;;0.45;;
17259;SDS011;8746;49.230;9.220;2022-09-03T12:59:05;1.38;;;0.52;;
17259;SDS011;8746;49.230;9.220;2022-09-03T13:01:58;0.40;;;0.40;;
17259;SDS011;8746;49.230;9.220;2022-09-03T13:04:25;0.32;;;0.32;;
17259;SDS011;8746;49.230;9.220;2022-09-03T13:07:00;0.30;;;0.30;;
17259;SDS011;8746;49.230;9.220;2022-09-03T13:09:59;0.45;;;0.40;;
17259;SDS011;8746;49.230;9.220;2022-09-03T13:12:41;0.20;;;0.20;;
17259;SDS011;8746;49.230;9.220;2022-09-03T13:15:09;0.60;;;0.60;;
17259;SDS011;8746;49.230;9.220;2022-09-03T13:17:51;0.40;;;0.40;;
17259;SDS011;8746;49.230;9.220;2022-09-03T13:31:31;0.40;;;0.40;;
17259;SDS011;8746;49.230;9.220;2022-09-03T13:34:06;0.45;;;0.45;;
17259;SDS011;8746;49.230;9.220;2022-09-03T13:36:44;0.50;;;0.50;;
17259;SDS011;8746;49.230;9.220;2022-09-03T13:39:26;0.25;;;0.25;;
17259;SDS011;8746;49.230;9.220;2022-09-03T13:42:02;0.30;;;0.30;;
17259;SDS011;8746;49.230;9.220;2022-09-03T13:51:00;0.65;;;0.60;;
17259;SDS011;8746;49.230;9.220;2022-09-03T13:56:25;0.47;;;0.47;;
17259;SDS011;8746;49.230;9.220;2022-09-03T13:59:17;0.43;;;0.43;;
17259;SDS011;8746;49.230;9.220;2022-09-03T14:07:43;0.43;;;0.40;;
17259;SDS011;8746;49.230;9.220;2022-09-03T14:13:11;0.40;;;0.40;;
17259;SDS011;8746;49.230;9.220;2022-09-03T14:21:04;0.50;;;0.50;;
17259;SDS011;8746;49.230;9.220;2022-09-03T14:23:58;0.75;;;0.47;;
17259;SDS011;8746;49.230;9.220;2022-09-03T14:26:47;0.52;;;0.52;;
17259;SDS011;8746;49.230;9.220;2022-09-03T14:29:20;0.40;;;0.40;;
17259;SDS011;8746;49.230;9.220;2022-09-03T14:46:32;1.50;;;1.00;;
17259;SDS011;8746;49.230;9.220;2022-09-03T14:49:16;0.52;;;0.52;;
17259;SDS011;8746;49.230;9.220;2022-09-03T15:08:05;5.40;;;1.07;;
17259;SDS011;8746;49.230;9.220;2022-09-03T15:18:28;0.70;;;0.70;;
17259;SDS011;8746;49.230;9.220;2022-09-03T15:23:47;0.83;;;0.83;;
17259;SDS011;8746;49.230;9.220;2022-09-03T15:32:16;0.73;;;0.70;;
17259;SDS011;8746;49.230;9.220;2022-09-03T15:35:08;1.03;;;0.90;;
17259;SDS011;8746;49.230;9.220;2022-09-03T15:37:54;0.63;;;0.63;;
17259;SDS011;8746;49.230;9.220;2022-09-03T15:40:28;1.30;;;1.20;;
17259;SDS011;8746;49.230;9.220;2022-09-03T15:42:59;0.40;;;0.40;;
17259;SDS011;8746;49.230;9.220;2022-09-03T15:48:12;1.30;;;1.13;;
17259;SDS011;8746;49.230;9.220;2022-09-03T15:56:24;0.77;;;0.77;;
17259;SDS011;8746;49.230;9.220;2022-09-03T15:58:58;0.97;;;0.93;;
17259;SDS011;8746;49.230;9.220;2022-09-03T16:01:42;1.20;;;1.10;;
17259;SDS011;8746;49.230;9.220;2022-09-03T16:14:48;1.03;;;1.03;;
17259;SDS011;8746;49.230;9.220;2022-09-03T16:22:53;1.80;;;1.43;;
17259;SDS011;8746;49.230;9.220;2022-09-03T16:28:35;0.90;;;0.90;;
17259;SDS011;8746;49.230;9.220;2022-09-03T16:44:55;0.90;;;0.90;;
17259;SDS011;8746;49.230;9.220;2022-09-03T16:50:06;2.13;;;1.93;;
17259;SDS011;8746;49.230;9.220;2022-09-03T16:52:41;2.47;;;1.33;;
17259;SDS011;8746;49.230;9.220;2022-09-03T16:55:20;0.97;;;0.97;;
17259;SDS011;8746;49.230;9.220;2022-09-03T17:03:50;1.33;;;0.73;;
17259;SDS011;8746;49.230;9.220;2022-09-03T17:07:14;1.53;;;1.37;;
17259;SDS011;8746;49.230;9.220;2022-09-03T17:12:17;0.50;;;0.50;;
17259;SDS011;8746;49.230;9.220;2022-09-03T17:23:28;0.70;;;0.70;;
17259;SDS011;8746;49.230;9.220;2022-09-03T17:26:31;1.03;;;0.53;;
17259;SDS011;8746;49.230;9.220;2022-09-03T17:34:43;2.30;;;0.80;;
17259;SDS011;8746;49.230;9.220;2022-09-03T17:40:24;0.80;;;0.77;;
17259;SDS011;8746;49.230;9.220;2022-09-03T17:43:17;1.17;;;1.07;;
17259;SDS011;8746;49.230;9.220;2022-09-03T17:48:51;1.30;;;0.77;;
17259;SDS011;8746;49.230;9.220;2022-09-03T17:51:26;0.93;;;0.73;;
17259;SDS011;8746;49.230;9.220;2022-09-03T17:54:05;1.10;;;1.10;;
17259;SDS011;8746;49.230;9.220;2022-09-03T17:59:40;2.00;;;1.40;;
17259;SDS011;8746;49.230;9.220;2022-09-03T18:02:30;1.20;;;0.60;;
17259;SDS011;8746;49.230;9.220;2022-09-03T18:10:42;1.37;;;1.27;;
17259;SDS011;8746;49.230;9.220;2022-09-03T18:16:20;0.90;;;0.90;;
17259;SDS011;8746;49.230;9.220;2022-09-03T18:18:50;0.97;;;0.87;;
17259;SDS011;8746;49.230;9.220;2022-09-03T18:21:19;0.87;;;0.87;;
17259;SDS011;8746;49.230;9.220;2022-09-03T18:27:03;1.30;;;0.87;;
17259;SDS011;8746;49.230;9.220;2022-09-03T18:30:03;0.63;;;0.63;;
17259;SDS011;8746;49.230;9.220;2022-09-03T18:32:56;0.63;;;0.60;;
17259;SDS011;8746;49.230;9.220;2022-09-03T18:35:44;0.93;;;0.93;;
17259;SDS011;8746;49.230;9.220;2022-09-03T18:38:30;1.37;;;0.80;;
17259;SDS011;8746;49.230;9.220;2022-09-03T18:50:27;0.77;;;0.77;;
17259;SDS011;8746;49.230;9.220;2022-09-03T18:53:27;0.80;;;0.80;;
17259;SDS011;8746;49.230;9.220;2022-09-03T18:56:36;2.60;;;1.07;;
17259;SDS011;8746;49.230;9.220;2022-09-03T19:05:24;1.07;;;0.97;;
17259;SDS011;8746;49.230;9.220;2022-09-03T19:11:31;1.73;;;1.43;;
17259;SDS011;8746;49.230;9.220;2022-09-03T19:17:58;0.93;;;0.93;;
17259;SDS011;8746;49.230;9.220;2022-09-03T19:20:54;2.20;;;0.93;;
17259;SDS011;8746;49.230;9.220;2022-09-03T19:23:46;0.67;;;0.67;;
17259;SDS011;8746;49.230;9.220;2022-09-03T19:26:39;0.60;;;0.60;;
17259;SDS011;8746;49.230;9.220;2022-09-03T19:32:57;1.00;;;1.00;;
17259;SDS011;8746;49.230;9.220;2022-09-03T19:35:58;1.50;;;1.07;;
17259;SDS011;8746;49.230;9.220;2022-09-03T19:38:59;0.70;;;0.67;;
17259;SDS011;8746;49.230;9.220;2022-09-03T19:41:51;0.67;;;0.63;;
17259;SDS011;8746;49.230;9.220;2022-09-03T19:48:00;2.83;;;0.77;;
17259;SDS011;8746;49.230;9.220;2022-09-03T19:50:59;0.40;;;0.40;;
17259;SDS011;8746;49.230;9.220;2022-09-03T19:53:54;1.07;;;1.07;;
17259;SDS011;8746;49.230;9.220;2022-09-03T19:56:40;1.97;;;1.13;;
17259;SDS011;8746;49.230;9.220;2022-09-03T19:59:25;3.07;;;1.03;;
17259;SDS011;8746;49.230;9.220;2022-09-03T20:02:16;0.70;;;0.70;;
17259;SDS011;8746;49.230;9.220;2022-09-03T20:05:01;4.73;;;1.10;;
17259;SDS011;8746;49.230;9.220;2022-09-03T20:07:53;0.80;;;0.80;;
17259;SDS011;8746;49.230;9.220;2022-09-03T20:10:39;1.87;;;1.43;;
17259;SDS011;8746;49.230;9.220;2022-09-03T20:13:08;0.83;;;0.83;;
17259;SDS011;8746;49.230;9.220;2022-09-03T20:15:44;1.03;;;1.03;;
17259;SDS011;8746;49.230;9.220;2022-09-03T20:18:16;1.23;;;1.13;;
17259;SDS011;8746;49.230;9.220;2022-09-03T20:24:27;1.30;;;1.07;;
17259;SDS011;8746;49.230;9.220;2022-09-03T20:27:01;1.03;;;1.03;;
17259;SDS011;8746;49.230;9.220;2022-09-03T20:29:53;0.83;;;0.83;;
17259;SDS011;8746;49.230;9.220;2022-09-03T20:32:59;0.50;;;0.50;;
17259;SDS011;8746;49.230;9.220;2022-09-03T20:36:14;0.90;;;0.90;;
17259;SDS011;8746;49.230;9.220;2022-09-03T20:44:09;0.60;;;0.60;;
17259;SDS011;8746;49.230;9.220;2022-09-03T20:47:13;0.53;;;0.50;;
17259;SDS011;8746;49.230;9.220;2022-09-03T20:57:50;1.30;;;1.20;;
17259;SDS011;8746;49.230;9.220;2022-09-03T21:00:25;0.60;;;0.60;;
17259;SDS011;8746;49.230;9.220;2022-09-03T21:03:17;2.93;;;1.17;;
17259;SDS011;8746;49.230;9.220;2022-09-03T21:06:06;0.53;;;0.53;;
17259;SDS011;8746;49.230;9.220;2022-09-03T21:11:39;1.07;;;1.03;;